sensor_id;sensor_type;location;lat;lon;timestamp;P1;durP1;ratioP1;P2;durP2;ratioP2
2772;SDS011;1394;47.044;15.744;2022-07-23T00:00:29;14.63;;;13.33;;
2772;SDS011;1394;47.044;15.744;2022-07-23T00:02:56;15.40;;;14.10;;
2772;SDS011;1394;47.044;15.744;2022-07-23T00:05:23;15.00;;;13.50;;
2772;SDS011;1394;47.044;15.744;2022-07-23T00:07:50;16.23;;;14.47;;
2772;SDS011;1394;47.044;15.744;2022-07-23T00:10:18;16.57;;;15.07;;
2772;SDS011;1394;47.044;15.744;2022-07-23T00:12:46;16.33;;;14.60;;
2772;SDS011;1394;47.044;15.744;2022-07-23T00:15:14;16.60;;;13.67;;
2772;SDS011;1394;47.044;15.744;2022-07-23T00:17:41;16.27;;;14.87;;
2772;SDS011;1394;47.044;15.744;2022-07-23T00:20:08;17.40;;;15.70;;
2772;SDS011;1394;47.044;15.744;2022-07-23T00:22:45;15.23;;;13.83;;
2772;SDS011;1394;47.044;15.744;2022-07-23T00:25:12;17.10;;;15.60;;
2772;SDS011;1394;47.044;15.744;2022-07-23T00:27:39;17.70;;;16.20;;
2772;SDS011;1394;47.044;15.744;2022-07-23T00:30:09;16.40;;;15.00;;
2772;SDS011;1394;47.044;15.744;2022-07-23T00:32:44;16.37;;;14.97;;
2772;SDS011;1394;47.044;15.744;2022-07-23T00:35:11;15.20;;;13.90;;
2772;SDS011;1394;47.044;15.744;2022-07-23T00:37:39;15.90;;;14.50;;
2772;SDS011;1394;47.044;15.744;2022-07-23T00:40:07;15.53;;;14.10;;
2772;SDS011;1394;47.044;15.744;2022-07-23T00:42:34;16.13;;;14.73;;
2772;SDS011;1394;47.044;15.744;2022-07-23T00:45:01;16.67;;;14.97;;
2772;SDS011;1394;47.044;15.744;2022-07-23T00:47:33;17.77;;;16.27;;
2772;SDS011;1394;47.044;15.744;2022-07-23T00:50:00;17.33;;;15.73;;
2772;SDS011;1394;47.044;15.744;2022-07-23T00:52:28;16.00;;;14.60;;
2772;SDS011;1394;47.044;15.744;2022-07-23T00:54:55;16.00;;;14.40;;
2772;SDS011;1394;47.044;15.744;2022-07-23T00:57:22;16.57;;;15.10;;
2772;SDS011;1394;47.044;15.744;2022-07-23T00:59:50;16.47;;;14.87;;
2772;SDS011;1394;47.044;15.744;2022-07-23T01:02:17;16.33;;;14.80;;
2772;SDS011;1394;47.044;15.744;2022-07-23T01:04:46;15.90;;;14.33;;
2772;SDS011;1394;47.044;15.744;2022-07-23T01:07:13;15.80;;;14.27;;
2772;SDS011;1394;47.044;15.744;2022-07-23T01:09:42;16.37;;;14.87;;
2772;SDS011;1394;47.044;15.744;2022-07-23T01:12:10;17.40;;;15.90;;
2772;SDS011;1394;47.044;15.744;2022-07-23T01:14:38;18.47;;;16.67;;
2772;SDS011;1394;47.044;15.744;2022-07-23T01:17:05;15.83;;;14.53;;
2772;SDS011;1394;47.044;15.744;2022-07-23T01:19:32;17.60;;;15.90;;
2772;SDS011;1394;47.044;15.744;2022-07-23T01:22:02;15.30;;;14.00;;
2772;SDS011;1394;47.044;15.744;2022-07-23T01:24:31;15.23;;;13.93;;
2772;SDS011;1394;47.044;15.744;2022-07-23T01:26:58;17.00;;;15.53;;
2772;SDS011;1394;47.044;15.744;2022-07-23T01:29:26;15.27;;;13.97;;
2772;SDS011;1394;47.044;15.744;2022-07-23T01:31:53;14.57;;;13.33;;
2772;SDS011;1394;47.044;15.744;2022-07-23T01:34:20;16.47;;;14.97;;
2772;SDS011;1394;47.044;15.744;2022-07-23T01:36:48;15.97;;;14.60;;
2772;SDS011;1394;47.044;15.744;2022-07-23T01:39:15;15.90;;;14.27;;
2772;SDS011;1394;47.044;15.744;2022-07-23T01:41:45;17.13;;;15.63;;
2772;SDS011;1394;47.044;15.744;2022-07-23T01:44:12;15.73;;;14.33;;
2772;SDS011;1394;47.044;15.744;2022-07-23T01:46:42;14.97;;;13.67;;
2772;SDS011;1394;47.044;15.744;2022-07-23T01:49:09;15.70;;;13.90;;
2772;SDS011;1394;47.044;15.744;2022-07-23T01:51:37;17.73;;;16.23;;
2772;SDS011;1394;47.044;15.744;2022-07-23T01:54:24;18.00;;;16.30;;
2772;SDS011;1394;47.044;15.744;2022-07-23T01:56:52;16.37;;;14.97;;
2772;SDS011;1394;47.044;15.744;2022-07-23T01:59:37;17.40;;;15.80;;
2772;SDS011;1394;47.044;15.744;2022-07-23T02:02:04;16.40;;;14.87;;
2772;SDS011;1394;47.044;15.744;2022-07-23T02:04:31;16.80;;;15.37;;
2772;SDS011;1394;47.044;15.744;2022-07-23T02:07:01;15.43;;;14.17;;
2772;SDS011;1394;47.044;15.744;2022-07-23T02:09:28;17.83;;;16.10;;
2772;SDS011;1394;47.044;15.744;2022-07-23T02:11:59;16.30;;;14.80;;
2772;SDS011;1394;47.044;15.744;2022-07-23T02:14:27;16.73;;;15.23;;
2772;SDS011;1394;47.044;15.744;2022-07-23T02:16:54;17.50;;;15.93;;
2772;SDS011;1394;47.044;15.744;2022-07-23T02:19:22;19.50;;;17.90;;
2772;SDS011;1394;47.044;15.744;2022-07-23T02:21:52;15.77;;;14.17;;
2772;SDS011;1394;47.044;15.744;2022-07-23T02:24:20;17.07;;;15.23;;
2772;SDS011;1394;47.044;15.744;2022-07-23T02:27:12;17.97;;;16.37;;
2772;SDS011;1394;47.044;15.744;2022-07-23T02:29:39;17.30;;;15.80;;
2772;SDS011;1394;47.044;15.744;2022-07-23T02:32:06;18.80;;;17.10;;
2772;SDS011;1394;47.044;15.744;2022-07-23T02:34:39;17.40;;;15.90;;
2772;SDS011;1394;47.044;15.744;2022-07-23T02:37:06;17.37;;;15.83;;
2772;SDS011;1394;47.044;15.744;2022-07-23T02:39:36;17.57;;;16.07;;
2772;SDS011;1394;47.044;15.744;2022-07-23T02:42:06;16.97;;;15.47;;
2772;SDS011;1394;47.044;15.744;2022-07-23T02:44:35;16.60;;;15.00;;
2772;SDS011;1394;47.044;15.744;2022-07-23T02:47:02;16.30;;;14.90;;
2772;SDS011;1394;47.044;15.744;2022-07-23T02:49:33;17.63;;;15.67;;
2772;SDS011;1394;47.044;15.744;2022-07-23T02:52:02;19.30;;;17.60;;
2772;SDS011;1394;47.044;15.744;2022-07-23T02:54:29;17.10;;;15.60;;
2772;SDS011;1394;47.044;15.744;2022-07-23T02:56:57;17.53;;;16.07;;
2772;SDS011;1394;47.044;15.744;2022-07-23T02:59:24;18.20;;;16.67;;
2772;SDS011;1394;47.044;15.744;2022-07-23T03:01:53;18.47;;;16.90;;
2772;SDS011;1394;47.044;15.744;2022-07-23T03:04:20;20.53;;;18.63;;
2772;SDS011;1394;47.044;15.744;2022-07-23T03:06:50;18.10;;;16.53;;
2772;SDS011;1394;47.044;15.744;2022-07-23T03:09:17;17.87;;;16.27;;
2772;SDS011;1394;47.044;15.744;2022-07-23T03:11:44;19.20;;;17.30;;
2772;SDS011;1394;47.044;15.744;2022-07-23T03:14:12;18.77;;;17.07;;
2772;SDS011;1394;47.044;15.744;2022-07-23T03:16:41;17.40;;;15.80;;
2772;SDS011;1394;47.044;15.744;2022-07-23T03:19:15;18.20;;;16.60;;
2772;SDS011;1394;47.044;15.744;2022-07-23T03:21:42;17.33;;;15.87;;
2772;SDS011;1394;47.044;15.744;2022-07-23T03:24:10;17.97;;;16.27;;
2772;SDS011;1394;47.044;15.744;2022-07-23T03:26:37;16.97;;;15.40;;
2772;SDS011;1394;47.044;15.744;2022-07-23T03:29:11;17.33;;;15.77;;
2772;SDS011;1394;47.044;15.744;2022-07-23T03:31:38;18.97;;;17.37;;
2772;SDS011;1394;47.044;15.744;2022-07-23T03:34:05;16.50;;;15.10;;
2772;SDS011;1394;47.044;15.744;2022-07-23T03:36:34;17.73;;;16.13;;
2772;SDS011;1394;47.044;15.744;2022-07-23T03:39:01;16.70;;;15.30;;
2772;SDS011;1394;47.044;15.744;2022-07-23T03:41:28;18.33;;;16.50;;
2772;SDS011;1394;47.044;15.744;2022-07-23T03:43:59;15.67;;;14.27;;
2772;SDS011;1394;47.044;15.744;2022-07-23T03:46:26;16.60;;;14.93;;
2772;SDS011;1394;47.044;15.744;2022-07-23T03:48:54;15.67;;;14.17;;
2772;SDS011;1394;47.044;15.744;2022-07-23T03:51:21;16.60;;;15.07;;
2772;SDS011;1394;47.044;15.744;2022-07-23T03:53:49;17.07;;;15.57;;
2772;SDS011;1394;47.044;15.744;2022-07-23T03:56:19;17.03;;;15.43;;
2772;SDS011;1394;47.044;15.744;2022-07-23T03:58:46;15.87;;;14.57;;
2772;SDS011;1394;47.044;15.744;2022-07-23T04:01:15;15.00;;;13.77;;
2772;SDS011;1394;47.044;15.744;2022-07-23T04:03:43;17.63;;;16.00;;
2772;SDS011;1394;47.044;15.744;2022-07-23T04:06:11;18.50;;;16.90;;
2772;SDS011;1394;47.044;15.744;2022-07-23T04:08:38;17.80;;;16.37;;
2772;SDS011;1394;47.044;15.744;2022-07-23T04:11:07;19.87;;;18.03;;
2772;SDS011;1394;47.044;15.744;2022-07-23T04:13:35;18.40;;;16.80;;
2772;SDS011;1394;47.044;15.744;2022-07-23T04:16:02;18.03;;;16.23;;
2772;SDS011;1394;47.044;15.744;2022-07-23T04:18:33;19.90;;;17.93;;
2772;SDS011;1394;47.044;15.744;2022-07-23T04:21:00;17.70;;;16.10;;
2772;SDS011;1394;47.044;15.744;2022-07-23T04:23:29;16.77;;;15.27;;
2772;SDS011;1394;47.044;15.744;2022-07-23T04:25:56;17.10;;;15.40;;
2772;SDS011;1394;47.044;15.744;2022-07-23T04:28:27;17.80;;;16.20;;
2772;SDS011;1394;47.044;15.744;2022-07-23T04:30:55;16.63;;;15.10;;
2772;SDS011;1394;47.044;15.744;2022-07-23T04:33:23;16.80;;;15.30;;
2772;SDS011;1394;47.044;15.744;2022-07-23T04:35:50;17.43;;;15.93;;
2772;SDS011;1394;47.044;15.744;2022-07-23T04:38:17;18.13;;;16.63;;
2772;SDS011;1394;47.044;15.744;2022-07-23T04:40:45;18.03;;;16.10;;
2772;SDS011;1394;47.044;15.744;2022-07-23T04:43:12;17.70;;;16.10;;
2772;SDS011;1394;47.044;15.744;2022-07-23T04:45:40;16.90;;;15.40;;
2772;SDS011;1394;47.044;15.744;2022-07-23T04:48:08;16.90;;;15.30;;
2772;SDS011;1394;47.044;15.744;2022-07-23T04:50:38;17.30;;;15.90;;
2772;SDS011;1394;47.044;15.744;2022-07-23T04:53:07;18.80;;;17.17;;
2772;SDS011;1394;47.044;15.744;2022-07-23T04:55:38;18.77;;;17.17;;
2772;SDS011;1394;47.044;15.744;2022-07-23T04:58:05;19.07;;;17.13;;
2772;SDS011;1394;47.044;15.744;2022-07-23T05:00:33;20.50;;;18.53;;
2772;SDS011;1394;47.044;15.744;2022-07-23T05:03:01;18.27;;;16.50;;
2772;SDS011;1394;47.044;15.744;2022-07-23T05:05:28;19.33;;;17.53;;
2772;SDS011;1394;47.044;15.744;2022-07-23T05:07:56;20.50;;;18.70;;
2772;SDS011;1394;47.044;15.744;2022-07-23T05:10:23;20.30;;;18.40;;
2772;SDS011;1394;47.044;15.744;2022-07-23T05:12:50;19.13;;;17.53;;
2772;SDS011;1394;47.044;15.744;2022-07-23T05:15:17;19.67;;;17.80;;
2772;SDS011;1394;47.044;15.744;2022-07-23T05:17:45;20.27;;;18.47;;
2772;SDS011;1394;47.044;15.744;2022-07-23T05:20:13;18.60;;;17.00;;
2772;SDS011;1394;47.044;15.744;2022-07-23T05:22:43;18.57;;;16.97;;
2772;SDS011;1394;47.044;15.744;2022-07-23T05:25:10;20.07;;;17.97;;
2772;SDS011;1394;47.044;15.744;2022-07-23T05:27:38;20.37;;;18.50;;
2772;SDS011;1394;47.044;15.744;2022-07-23T05:30:05;18.23;;;16.47;;
2772;SDS011;1394;47.044;15.744;2022-07-23T05:32:33;18.50;;;16.90;;
2772;SDS011;1394;47.044;15.744;2022-07-23T05:35:01;18.77;;;16.93;;
2772;SDS011;1394;47.044;15.744;2022-07-23T05:37:31;18.67;;;17.07;;
2772;SDS011;1394;47.044;15.744;2022-07-23T05:40:00;19.70;;;17.80;;
2772;SDS011;1394;47.044;15.744;2022-07-23T05:42:29;17.90;;;16.40;;
2772;SDS011;1394;47.044;15.744;2022-07-23T05:44:56;20.53;;;18.53;;
2772;SDS011;1394;47.044;15.744;2022-07-23T05:47:24;20.40;;;18.70;;
2772;SDS011;1394;47.044;15.744;2022-07-23T05:49:51;20.20;;;18.50;;
2772;SDS011;1394;47.044;15.744;2022-07-23T05:52:18;18.60;;;16.90;;
2772;SDS011;1394;47.044;15.744;2022-07-23T05:54:47;19.40;;;17.80;;
2772;SDS011;1394;47.044;15.744;2022-07-23T05:57:14;17.73;;;16.00;;
2772;SDS011;1394;47.044;15.744;2022-07-23T05:59:42;17.57;;;15.97;;
2772;SDS011;1394;47.044;15.744;2022-07-23T06:02:12;17.43;;;15.93;;
2772;SDS011;1394;47.044;15.744;2022-07-23T06:04:39;19.90;;;18.10;;
2772;SDS011;1394;47.044;15.744;2022-07-23T06:07:07;17.40;;;15.90;;
2772;SDS011;1394;47.044;15.744;2022-07-23T06:09:35;18.07;;;16.57;;
2772;SDS011;1394;47.044;15.744;2022-07-23T06:12:04;17.93;;;16.37;;
2772;SDS011;1394;47.044;15.744;2022-07-23T06:14:31;19.17;;;17.27;;
2772;SDS011;1394;47.044;15.744;2022-07-23T06:17:01;18.20;;;16.67;;
2772;SDS011;1394;47.044;15.744;2022-07-23T06:19:31;17.73;;;16.00;;
2772;SDS011;1394;47.044;15.744;2022-07-23T06:21:59;16.67;;;15.30;;
2772;SDS011;1394;47.044;15.744;2022-07-23T06:24:27;18.00;;;16.50;;
2772;SDS011;1394;47.044;15.744;2022-07-23T06:26:54;17.90;;;16.33;;
2772;SDS011;1394;47.044;15.744;2022-07-23T06:29:23;18.20;;;16.50;;
2772;SDS011;1394;47.044;15.744;2022-07-23T06:31:51;18.63;;;16.87;;
2772;SDS011;1394;47.044;15.744;2022-07-23T06:34:18;17.83;;;16.37;;
2772;SDS011;1394;47.044;15.744;2022-07-23T06:36:45;19.43;;;17.73;;
2772;SDS011;1394;47.044;15.744;2022-07-23T06:39:13;19.77;;;17.83;;
2772;SDS011;1394;47.044;15.744;2022-07-23T06:41:40;19.00;;;17.33;;
2772;SDS011;1394;47.044;15.744;2022-07-23T06:44:08;17.03;;;15.50;;
2772;SDS011;1394;47.044;15.744;2022-07-23T06:46:37;18.37;;;16.87;;
2772;SDS011;1394;47.044;15.744;2022-07-23T06:49:07;19.03;;;17.30;;
2772;SDS011;1394;47.044;15.744;2022-07-23T06:51:34;16.70;;;15.40;;
2772;SDS011;1394;47.044;15.744;2022-07-23T06:54:02;18.60;;;17.00;;
2772;SDS011;1394;47.044;15.744;2022-07-23T06:56:29;18.20;;;16.53;;
2772;SDS011;1394;47.044;15.744;2022-07-23T06:58:56;19.73;;;17.97;;
2772;SDS011;1394;47.044;15.744;2022-07-23T07:01:24;18.00;;;16.40;;
2772;SDS011;1394;47.044;15.744;2022-07-23T07:03:55;17.97;;;16.37;;
2772;SDS011;1394;47.044;15.744;2022-07-23T07:06:22;17.40;;;15.70;;
2772;SDS011;1394;47.044;15.744;2022-07-23T07:08:50;17.97;;;16.47;;
2772;SDS011;1394;47.044;15.744;2022-07-23T07:11:17;18.30;;;16.50;;
2772;SDS011;1394;47.044;15.744;2022-07-23T07:13:45;16.83;;;15.33;;
2772;SDS011;1394;47.044;15.744;2022-07-23T07:16:12;18.40;;;15.90;;
2772;SDS011;1394;47.044;15.744;2022-07-23T07:18:40;17.20;;;15.60;;
2772;SDS011;1394;47.044;15.744;2022-07-23T07:21:09;17.33;;;15.73;;
2772;SDS011;1394;47.044;15.744;2022-07-23T07:23:40;15.17;;;13.83;;
2772;SDS011;1394;47.044;15.744;2022-07-23T07:26:07;15.23;;;13.73;;
2772;SDS011;1394;47.044;15.744;2022-07-23T07:28:34;15.70;;;14.10;;
2772;SDS011;1394;47.044;15.744;2022-07-23T07:31:02;13.90;;;12.70;;
2772;SDS011;1394;47.044;15.744;2022-07-23T07:33:29;13.33;;;12.13;;
2772;SDS011;1394;47.044;15.744;2022-07-23T07:35:56;14.27;;;12.77;;
2772;SDS011;1394;47.044;15.744;2022-07-23T07:38:25;13.40;;;12.20;;
2772;SDS011;1394;47.044;15.744;2022-07-23T07:40:56;13.33;;;12.03;;
2772;SDS011;1394;47.044;15.744;2022-07-23T07:43:23;13.93;;;12.73;;
2772;SDS011;1394;47.044;15.744;2022-07-23T07:45:50;13.00;;;11.90;;
2772;SDS011;1394;47.044;15.744;2022-07-23T07:48:34;14.53;;;13.23;;
2772;SDS011;1394;47.044;15.744;2022-07-23T07:51:05;13.40;;;12.30;;
2772;SDS011;1394;47.044;15.744;2022-07-23T07:53:34;13.30;;;12.10;;
2772;SDS011;1394;47.044;15.744;2022-07-23T07:56:02;13.43;;;12.17;;
2772;SDS011;1394;47.044;15.744;2022-07-23T07:58:33;12.43;;;11.40;;
2772;SDS011;1394;47.044;15.744;2022-07-23T08:01:00;12.37;;;11.37;;
2772;SDS011;1394;47.044;15.744;2022-07-23T08:03:27;13.60;;;12.30;;
2772;SDS011;1394;47.044;15.744;2022-07-23T08:05:54;12.20;;;11.30;;
2772;SDS011;1394;47.044;15.744;2022-07-23T08:08:22;11.67;;;10.57;;
2772;SDS011;1394;47.044;15.744;2022-07-23T08:10:51;11.33;;;10.33;;
2772;SDS011;1394;47.044;15.744;2022-07-23T08:13:18;10.83;;;9.83;;
2772;SDS011;1394;47.044;15.744;2022-07-23T08:15:48;10.70;;;9.73;;
2772;SDS011;1394;47.044;15.744;2022-07-23T08:18:18;10.60;;;9.70;;
2772;SDS011;1394;47.044;15.744;2022-07-23T08:20:45;11.40;;;10.30;;
2772;SDS011;1394;47.044;15.744;2022-07-23T08:23:12;11.10;;;10.10;;
2772;SDS011;1394;47.044;15.744;2022-07-23T08:25:43;11.87;;;10.47;;
2772;SDS011;1394;47.044;15.744;2022-07-23T08:28:13;11.37;;;10.37;;
2772;SDS011;1394;47.044;15.744;2022-07-23T08:30:41;10.90;;;10.00;;
2772;SDS011;1394;47.044;15.744;2022-07-23T08:33:09;10.23;;;9.43;;
2772;SDS011;1394;47.044;15.744;2022-07-23T08:35:38;12.00;;;10.90;;
2772;SDS011;1394;47.044;15.744;2022-07-23T08:38:07;10.17;;;9.30;;
2772;SDS011;1394;47.044;15.744;2022-07-23T08:40:36;12.33;;;11.13;;
2772;SDS011;1394;47.044;15.744;2022-07-23T08:43:04;11.27;;;10.10;;
2772;SDS011;1394;47.044;15.744;2022-07-23T08:45:35;11.30;;;10.17;;
2772;SDS011;1394;47.044;15.744;2022-07-23T08:48:02;11.00;;;10.00;;
2772;SDS011;1394;47.044;15.744;2022-07-23T08:50:30;10.90;;;9.57;;
2772;SDS011;1394;47.044;15.744;2022-07-23T08:52:58;11.37;;;9.40;;
2772;SDS011;1394;47.044;15.744;2022-07-23T08:55:25;10.70;;;9.70;;
2772;SDS011;1394;47.044;15.744;2022-07-23T08:57:53;10.17;;;9.17;;
2772;SDS011;1394;47.044;15.744;2022-07-23T09:00:20;11.07;;;10.07;;
2772;SDS011;1394;47.044;15.744;2022-07-23T09:02:50;9.63;;;8.70;;
2772;SDS011;1394;47.044;15.744;2022-07-23T09:05:17;9.90;;;9.00;;
2772;SDS011;1394;47.044;15.744;2022-07-23T09:08:04;9.40;;;8.50;;
2772;SDS011;1394;47.044;15.744;2022-07-23T09:10:36;12.73;;;9.27;;
2772;SDS011;1394;47.044;15.744;2022-07-23T09:13:17;12.67;;;10.23;;
2772;SDS011;1394;47.044;15.744;2022-07-23T09:15:49;10.77;;;9.67;;
2772;SDS011;1394;47.044;15.744;2022-07-23T09:18:19;10.60;;;9.60;;
2772;SDS011;1394;47.044;15.744;2022-07-23T09:20:46;9.33;;;8.27;;
2772;SDS011;1394;47.044;15.744;2022-07-23T09:23:13;9.90;;;8.97;;
2772;SDS011;1394;47.044;15.744;2022-07-23T09:25:41;10.03;;;8.33;;
2772;SDS011;1394;47.044;15.744;2022-07-23T09:28:08;9.83;;;8.93;;
2772;SDS011;1394;47.044;15.744;2022-07-23T09:30:35;9.63;;;8.67;;
2772;SDS011;1394;47.044;15.744;2022-07-23T09:33:04;9.97;;;9.07;;
2772;SDS011;1394;47.044;15.744;2022-07-23T09:35:49;10.60;;;9.60;;
2772;SDS011;1394;47.044;15.744;2022-07-23T09:38:17;11.20;;;10.10;;
2772;SDS011;1394;47.044;15.744;2022-07-23T09:40:44;10.93;;;10.03;;
2772;SDS011;1394;47.044;15.744;2022-07-23T09:43:12;10.20;;;9.30;;
2772;SDS011;1394;47.044;15.744;2022-07-23T09:45:39;10.60;;;9.60;;
2772;SDS011;1394;47.044;15.744;2022-07-23T09:48:11;10.23;;;9.23;;
2772;SDS011;1394;47.044;15.744;2022-07-23T09:50:39;11.13;;;10.13;;
2772;SDS011;1394;47.044;15.744;2022-07-23T09:53:08;10.20;;;9.30;;
2772;SDS011;1394;47.044;15.744;2022-07-23T09:55:36;9.93;;;9.13;;
2772;SDS011;1394;47.044;15.744;2022-07-23T09:58:05;10.17;;;9.37;;
2772;SDS011;1394;47.044;15.744;2022-07-23T10:00:36;11.27;;;10.17;;
2772;SDS011;1394;47.044;15.744;2022-07-23T10:03:04;10.33;;;9.23;;
2772;SDS011;1394;47.044;15.744;2022-07-23T10:05:32;10.53;;;9.63;;
2772;SDS011;1394;47.044;15.744;2022-07-23T10:08:01;10.37;;;9.47;;
2772;SDS011;1394;47.044;15.744;2022-07-23T10:10:30;10.17;;;9.27;;
2772;SDS011;1394;47.044;15.744;2022-07-23T10:13:01;10.57;;;9.57;;
2772;SDS011;1394;47.044;15.744;2022-07-23T10:15:54;11.20;;;10.17;;
2772;SDS011;1394;47.044;15.744;2022-07-23T10:18:22;11.20;;;10.00;;
2772;SDS011;1394;47.044;15.744;2022-07-23T10:20:49;10.70;;;9.83;;
2772;SDS011;1394;47.044;15.744;2022-07-23T10:23:20;10.80;;;9.80;;
2772;SDS011;1394;47.044;15.744;2022-07-23T10:25:55;11.30;;;10.30;;
2772;SDS011;1394;47.044;15.744;2022-07-23T10:28:33;10.50;;;9.60;;
2772;SDS011;1394;47.044;15.744;2022-07-23T10:31:08;11.50;;;10.40;;
2772;SDS011;1394;47.044;15.744;2022-07-23T10:33:39;11.20;;;10.20;;
2772;SDS011;1394;47.044;15.744;2022-07-23T10:36:12;11.37;;;10.37;;
2772;SDS011;1394;47.044;15.744;2022-07-23T10:38:49;11.07;;;10.17;;
2772;SDS011;1394;47.044;15.744;2022-07-23T10:41:31;15.30;;;11.00;;
2772;SDS011;1394;47.044;15.744;2022-07-23T10:44:06;11.00;;;10.10;;
2772;SDS011;1394;47.044;15.744;2022-07-23T10:46:33;10.33;;;9.43;;
2772;SDS011;1394;47.044;15.744;2022-07-23T10:49:20;12.13;;;11.13;;
2772;SDS011;1394;47.044;15.744;2022-07-23T10:54:52;10.83;;;9.53;;
2772;SDS011;1394;47.044;15.744;2022-07-23T10:57:21;11.00;;;9.90;;
2772;SDS011;1394;47.044;15.744;2022-07-23T11:02:50;12.40;;;11.40;;
2772;SDS011;1394;47.044;15.744;2022-07-23T11:05:18;11.90;;;10.80;;
2772;SDS011;1394;47.044;15.744;2022-07-23T11:10:32;11.50;;;10.50;;
2772;SDS011;1394;47.044;15.744;2022-07-23T11:23:59;11.23;;;10.33;;
2772;SDS011;1394;47.044;15.744;2022-07-23T11:26:44;10.40;;;9.60;;
2772;SDS011;1394;47.044;15.744;2022-07-23T11:32:02;11.55;;;10.45;;
2772;SDS011;1394;47.044;15.744;2022-07-23T11:34:33;10.95;;;9.95;;
2772;SDS011;1394;47.044;15.744;2022-07-23T11:37:01;11.63;;;10.43;;
2772;SDS011;1394;47.044;15.744;2022-07-23T11:39:30;10.98;;;9.98;;
2772;SDS011;1394;47.044;15.744;2022-07-23T11:42:00;12.20;;;11.27;;
2772;SDS011;1394;47.044;15.744;2022-07-23T11:44:31;10.90;;;9.80;;
2772;SDS011;1394;47.044;15.744;2022-07-23T11:47:04;12.05;;;11.05;;
2772;SDS011;1394;47.044;15.744;2022-07-23T11:49:32;11.68;;;10.73;;
2772;SDS011;1394;47.044;15.744;2022-07-23T11:52:03;10.93;;;9.85;;
2772;SDS011;1394;47.044;15.744;2022-07-23T11:54:36;12.20;;;10.90;;
2772;SDS011;1394;47.044;15.744;2022-07-23T11:57:04;11.07;;;10.27;;
2772;SDS011;1394;47.044;15.744;2022-07-23T11:59:32;11.18;;;10.23;;
2772;SDS011;1394;47.044;15.744;2022-07-23T12:01:59;11.07;;;10.20;;
2772;SDS011;1394;47.044;15.744;2022-07-23T12:04:36;10.60;;;9.60;;
2772;SDS011;1394;47.044;15.744;2022-07-23T12:07:04;11.50;;;10.50;;
2772;SDS011;1394;47.044;15.744;2022-07-23T12:09:50;10.90;;;9.80;;
2772;SDS011;1394;47.044;15.744;2022-07-23T12:12:18;11.80;;;10.63;;
2772;SDS011;1394;47.044;15.744;2022-07-23T12:14:49;11.18;;;10.27;;
2772;SDS011;1394;47.044;15.744;2022-07-23T12:17:19;11.98;;;10.88;;
2772;SDS011;1394;47.044;15.744;2022-07-23T12:19:46;11.60;;;10.60;;
2772;SDS011;1394;47.044;15.744;2022-07-23T12:22:14;11.23;;;10.32;;
2772;SDS011;1394;47.044;15.744;2022-07-23T12:24:58;11.48;;;10.48;;
2772;SDS011;1394;47.044;15.744;2022-07-23T12:27:27;11.63;;;10.73;;
2772;SDS011;1394;47.044;15.744;2022-07-23T12:29:54;11.30;;;10.43;;
2772;SDS011;1394;47.044;15.744;2022-07-23T12:32:22;11.23;;;10.23;;
2772;SDS011;1394;47.044;15.744;2022-07-23T12:34:50;11.80;;;10.80;;
2772;SDS011;1394;47.044;15.744;2022-07-23T12:37:27;11.60;;;10.70;;
2772;SDS011;1394;47.044;15.744;2022-07-23T12:40:03;11.85;;;10.95;;
2772;SDS011;1394;47.044;15.744;2022-07-23T12:42:44;11.60;;;10.60;;
2772;SDS011;1394;47.044;15.744;2022-07-23T12:45:15;12.38;;;11.38;;
2772;SDS011;1394;47.044;15.744;2022-07-23T12:47:52;11.82;;;10.93;;
2772;SDS011;1394;47.044;15.744;2022-07-23T12:53:17;11.02;;;10.10;;
2772;SDS011;1394;47.044;15.744;2022-07-23T12:55:46;11.43;;;10.52;;
2772;SDS011;1394;47.044;15.744;2022-07-23T12:58:14;11.68;;;10.77;;
2772;SDS011;1394;47.044;15.744;2022-07-23T13:00:52;12.45;;;11.45;;
2772;SDS011;1394;47.044;15.744;2022-07-23T13:03:20;11.23;;;10.43;;
2772;SDS011;1394;47.044;15.744;2022-07-23T13:05:47;12.13;;;11.23;;
2772;SDS011;1394;47.044;15.744;2022-07-23T13:08:15;11.23;;;10.25;;
2772;SDS011;1394;47.044;15.744;2022-07-23T13:10:42;11.57;;;10.57;;
2772;SDS011;1394;47.044;15.744;2022-07-23T13:13:13;11.30;;;10.38;;
2772;SDS011;1394;47.044;15.744;2022-07-23T13:15:41;11.57;;;10.50;;
2772;SDS011;1394;47.044;15.744;2022-07-23T13:18:09;11.65;;;10.75;;
2772;SDS011;1394;47.044;15.744;2022-07-23T13:20:36;11.43;;;10.43;;
2772;SDS011;1394;47.044;15.744;2022-07-23T13:23:04;11.63;;;10.52;;
2772;SDS011;1394;47.044;15.744;2022-07-23T13:25:32;11.63;;;10.63;;
2772;SDS011;1394;47.044;15.744;2022-07-23T13:28:00;10.85;;;9.95;;
2772;SDS011;1394;47.044;15.744;2022-07-23T13:30:28;12.02;;;10.77;;
2772;SDS011;1394;47.044;15.744;2022-07-23T13:32:56;11.40;;;10.40;;
2772;SDS011;1394;47.044;15.744;2022-07-23T13:35:23;12.23;;;10.88;;
2772;SDS011;1394;47.044;15.744;2022-07-23T13:37:50;12.25;;;11.00;;
2772;SDS011;1394;47.044;15.744;2022-07-23T13:40:18;12.13;;;10.98;;
2772;SDS011;1394;47.044;15.744;2022-07-23T13:42:45;12.10;;;11.00;;
2772;SDS011;1394;47.044;15.744;2022-07-23T13:45:12;12.18;;;11.05;;
2772;SDS011;1394;47.044;15.744;2022-07-23T13:47:43;11.55;;;10.68;;
2772;SDS011;1394;47.044;15.744;2022-07-23T13:50:11;12.52;;;11.60;;
2772;SDS011;1394;47.044;15.744;2022-07-23T13:52:41;11.80;;;10.90;;
2772;SDS011;1394;47.044;15.744;2022-07-23T13:55:09;11.75;;;10.75;;
2772;SDS011;1394;47.044;15.744;2022-07-23T13:57:36;12.55;;;11.38;;
2772;SDS011;1394;47.044;15.744;2022-07-23T14:00:04;11.15;;;10.25;;
2772;SDS011;1394;47.044;15.744;2022-07-23T14:02:32;11.50;;;10.60;;
2772;SDS011;1394;47.044;15.744;2022-07-23T14:05:01;11.95;;;10.98;;
2772;SDS011;1394;47.044;15.744;2022-07-23T14:07:28;11.25;;;10.45;;
2772;SDS011;1394;47.044;15.744;2022-07-23T14:09:56;11.60;;;10.65;;
2772;SDS011;1394;47.044;15.744;2022-07-23T14:12:23;11.30;;;10.40;;
2772;SDS011;1394;47.044;15.744;2022-07-23T14:14:51;11.95;;;10.98;;
2772;SDS011;1394;47.044;15.744;2022-07-23T14:17:18;11.18;;;10.32;;
2772;SDS011;1394;47.044;15.744;2022-07-23T14:19:46;12.30;;;11.20;;
2772;SDS011;1394;47.044;15.744;2022-07-23T14:22:15;11.68;;;10.77;;
2772;SDS011;1394;47.044;15.744;2022-07-23T14:24:42;12.18;;;11.27;;
2772;SDS011;1394;47.044;15.744;2022-07-23T14:27:09;12.45;;;11.23;;
2772;SDS011;1394;47.044;15.744;2022-07-23T14:29:37;12.15;;;10.95;;
2772;SDS011;1394;47.044;15.744;2022-07-23T14:32:04;11.77;;;10.88;;
2772;SDS011;1394;47.044;15.744;2022-07-23T14:34:32;12.93;;;11.73;;
2772;SDS011;1394;47.044;15.744;2022-07-23T14:37:02;12.25;;;11.35;;
2772;SDS011;1394;47.044;15.744;2022-07-23T14:39:31;11.48;;;10.60;;
2772;SDS011;1394;47.044;15.744;2022-07-23T14:41:59;10.93;;;10.13;;
2772;SDS011;1394;47.044;15.744;2022-07-23T14:44:26;10.25;;;9.45;;
2772;SDS011;1394;47.044;15.744;2022-07-23T14:46:53;10.90;;;9.95;;
2772;SDS011;1394;47.044;15.744;2022-07-23T14:49:20;10.80;;;9.90;;
2772;SDS011;1394;47.044;15.744;2022-07-23T14:51:48;11.48;;;10.57;;
2772;SDS011;1394;47.044;15.744;2022-07-23T14:54:15;11.82;;;10.88;;
2772;SDS011;1394;47.044;15.744;2022-07-23T14:56:44;12.20;;;11.30;;
2772;SDS011;1394;47.044;15.744;2022-07-23T14:59:11;11.07;;;10.15;;
2772;SDS011;1394;47.044;15.744;2022-07-23T15:01:38;11.88;;;10.95;;
2772;SDS011;1394;47.044;15.744;2022-07-23T15:04:06;12.38;;;11.38;;
2772;SDS011;1394;47.044;15.744;2022-07-23T15:06:34;9.90;;;9.10;;
2772;SDS011;1394;47.044;15.744;2022-07-23T15:09:02;10.05;;;9.05;;
2772;SDS011;1394;47.044;15.744;2022-07-23T15:11:29;9.27;;;8.25;;